createdAt,value
2019-01-06T00:02:02.873Z,30.00
2019-01-06T00:04:29.963Z,30.00
2019-01-06T00:06:57.251Z,30.00
2019-01-06T00:09:24.390Z,30.00
2019-01-06T00:11:51.516Z,30.00
2019-01-06T00:14:18.625Z,30.00
2019-01-06T00:16:46.688Z,30.00
2019-01-06T00:19:13.769Z,30.00
2019-01-06T00:21:40.869Z,30.60
2019-01-06T00:24:08.530Z,30.00
2019-01-06T00:26:35.638Z,30.00
2019-01-06T00:29:02.719Z,30.00
2019-01-06T00:31:29.843Z,30.00
2019-01-06T00:33:57.050Z,30.00
2019-01-06T00:36:24.120Z,30.00
2019-01-06T00:38:51.259Z,30.00
2019-01-06T00:41:18.366Z,30.00
2019-01-06T00:43:45.445Z,30.00
2019-01-06T00:46:12.686Z,30.00
2019-01-06T00:48:39.778Z,30.00
2019-01-06T00:51:06.863Z,30.00
2019-01-06T00:53:33.922Z,30.00
2019-01-06T00:56:01.021Z,30.00
2019-01-06T00:58:28.135Z,30.00
2019-01-06T01:00:55.209Z,30.00
2019-01-06T01:03:22.267Z,30.00
2019-01-06T01:05:49.365Z,30.00
2019-01-06T01:08:16.448Z,30.00
2019-01-06T01:10:43.509Z,30.00
2019-01-06T01:13:10.612Z,30.00
2019-01-06T01:15:37.694Z,30.00
2019-01-06T01:18:04.782Z,30.00
2019-01-06T01:20:31.886Z,30.10
2019-01-06T01:22:58.985Z,30.00
2019-01-06T01:25:26.116Z,30.00
2019-01-06T01:27:53.206Z,30.00
2019-01-06T01:30:20.270Z,30.00
2019-01-06T01:32:47.370Z,30.10
2019-01-06T01:35:14.463Z,30.00
2019-01-06T01:37:41.590Z,30.00
2019-01-06T01:40:08.680Z,30.00
2019-01-06T01:42:35.756Z,30.10
2019-01-06T01:45:02.858Z,30.10
2019-01-06T01:47:29.953Z,30.10
2019-01-06T01:49:57.008Z,30.00
2019-01-06T01:52:24.089Z,30.00
2019-01-06T01:54:51.147Z,30.00
2019-01-06T01:57:18.251Z,30.00
2019-01-06T01:59:45.309Z,30.00
2019-01-06T02:02:12.609Z,30.00
2019-01-06T02:04:39.785Z,30.00
2019-01-06T02:07:07.067Z,30.00
2019-01-06T02:09:34.118Z,30.00
2019-01-06T02:12:01.208Z,30.00
2019-01-06T02:14:28.299Z,30.00
2019-01-06T02:16:55.458Z,30.00
2019-01-06T02:19:22.565Z,30.10
2019-01-06T02:21:49.613Z,30.00
2019-01-06T02:24:16.670Z,30.00
2019-01-06T02:26:43.844Z,30.00
2019-01-06T02:29:10.931Z,30.00
2019-01-06T02:31:37.980Z,30.00
2019-01-06T02:34:05.078Z,30.00
2019-01-06T02:36:32.329Z,30.00
2019-01-06T02:38:59.380Z,30.00
2019-01-06T02:41:26.479Z,30.10
2019-01-06T02:43:53.537Z,30.00
2019-01-06T02:46:20.600Z,30.10
2019-01-06T02:48:47.899Z,30.10
2019-01-06T02:51:14.953Z,30.10
2019-01-06T02:53:42.058Z,30.10
2019-01-06T02:56:09.133Z,30.10
2019-01-06T02:58:36.291Z,30.10
2019-01-06T03:01:03.336Z,30.00
2019-01-06T03:03:30.432Z,30.10
2019-01-06T03:05:57.490Z,30.00
2019-01-06T03:08:24.693Z,30.00
2019-01-06T03:10:51.736Z,30.10
2019-01-06T03:13:18.835Z,30.10
2019-01-06T03:15:45.892Z,30.10
2019-01-06T03:18:13.060Z,30.10
2019-01-06T03:20:40.352Z,30.10
2019-01-06T03:23:07.446Z,30.10
2019-01-06T03:25:34.512Z,30.10
2019-01-06T03:28:01.677Z,30.10
2019-01-06T03:30:28.745Z,30.00
2019-01-06T03:32:55.833Z,30.00
2019-01-06T03:35:22.882Z,30.00
2019-01-06T03:37:50.083Z,30.00
2019-01-06T03:40:17.174Z,30.00
2019-01-06T03:42:44.239Z,30.00
2019-01-06T03:45:11.339Z,30.10
2019-01-06T03:47:38.472Z,30.00
2019-01-06T03:50:05.555Z,30.00
2019-01-06T03:52:32.646Z,30.10
2019-01-06T03:54:59.704Z,30.00
2019-01-06T03:57:26.860Z,30.00
2019-01-06T03:59:53.931Z,30.10
2019-01-06T04:02:21.070Z,30.00
2019-01-06T04:04:48.156Z,30.10
2019-01-06T04:07:15.461Z,30.00
2019-01-06T04:09:42.513Z,30.00
2019-01-06T04:12:09.607Z,30.00
2019-01-06T04:14:36.661Z,30.00
2019-01-06T04:17:03.859Z,30.10
2019-01-06T04:19:30.935Z,30.10
2019-01-06T04:21:57.996Z,30.10
2019-01-06T04:24:25.087Z,30.10
2019-01-06T04:26:52.290Z,30.00
2019-01-06T04:29:19.508Z,30.00
2019-01-06T04:31:46.566Z,30.00
2019-01-06T04:34:13.655Z,30.10
2019-01-06T04:36:40.709Z,30.00
2019-01-06T04:39:07.905Z,30.00
2019-01-06T04:41:35.001Z,30.00
2019-01-06T04:44:02.055Z,30.10
2019-01-06T04:46:29.106Z,30.00
2019-01-06T04:48:56.301Z,30.00
2019-01-06T04:51:23.358Z,30.20
2019-01-06T04:53:50.450Z,30.00
2019-01-06T04:56:17.515Z,30.10
2019-01-06T04:58:44.703Z,30.10
2019-01-06T05:01:11.793Z,30.00
2019-01-06T05:03:38.863Z,30.00
2019-01-06T05:06:06.054Z,30.10
2019-01-06T05:08:33.202Z,30.00
2019-01-06T05:11:00.252Z,30.00
2019-01-06T05:13:27.304Z,30.00
2019-01-06T05:15:54.445Z,30.00
2019-01-06T05:18:21.547Z,30.00
2019-01-06T05:20:48.603Z,30.00
2019-01-06T05:23:15.664Z,30.10
2019-01-06T05:25:42.835Z,30.00
2019-01-06T05:28:09.925Z,30.00
2019-01-06T05:30:37.022Z,30.10
2019-01-06T05:33:04.183Z,30.10
2019-01-06T05:35:31.267Z,30.00
2019-01-06T05:37:58.324Z,30.00
2019-01-06T05:40:25.390Z,30.00
2019-01-06T05:42:52.577Z,30.10
2019-01-06T05:45:19.677Z,30.00
2019-01-06T05:47:46.733Z,30.00
2019-01-06T05:50:13.905Z,30.10
2019-01-06T05:52:41.176Z,30.00
2019-01-06T05:55:08.234Z,30.00
2019-01-06T05:57:35.479Z,30.00
2019-01-06T06:00:02.547Z,30.00
2019-01-06T06:02:29.627Z,30.00
2019-01-06T06:04:56.684Z,30.00
2019-01-06T06:07:23.882Z,30.10
2019-01-06T06:09:50.979Z,30.10
2019-01-06T06:12:18.063Z,30.00
2019-01-06T06:14:45.136Z,30.70
2019-01-06T06:17:12.757Z,30.10
2019-01-06T06:19:39.819Z,30.00
2019-01-06T06:22:06.893Z,30.00
2019-01-06T06:24:33.990Z,30.10
2019-01-06T06:27:01.038Z,30.00
2019-01-06T06:29:28.336Z,30.20
2019-01-06T06:31:55.395Z,30.10
2019-01-06T06:34:22.485Z,30.00
2019-01-06T06:36:49.675Z,30.00
2019-01-06T06:39:16.734Z,30.10
2019-01-06T06:41:43.829Z,30.10
2019-01-06T06:44:10.888Z,30.10
2019-01-06T06:46:37.991Z,30.10
2019-01-06T06:49:05.055Z,30.20
2019-01-06T06:51:32.120Z,30.10
2019-01-06T06:53:59.408Z,30.10
2019-01-06T06:56:26.505Z,30.10
2019-01-06T06:58:53.727Z,30.10
2019-01-06T07:01:20.791Z,30.10
2019-01-06T07:03:47.854Z,30.10
2019-01-06T07:06:15.073Z,30.10
2019-01-06T07:08:42.131Z,30.10
2019-01-06T07:11:09.200Z,30.10
2019-01-06T07:13:36.426Z,30.20
2019-01-06T07:16:03.482Z,30.10
2019-01-06T07:18:30.714Z,30.10
2019-01-06T07:20:57.805Z,30.10
2019-01-06T07:23:24.869Z,30.00
2019-01-06T07:25:51.997Z,30.00
2019-01-06T07:28:19.092Z,30.00
2019-01-06T07:30:46.265Z,30.00
2019-01-06T07:33:13.317Z,30.00
2019-01-06T07:35:40.404Z,30.00
2019-01-06T07:38:07.474Z,30.00
2019-01-06T07:40:34.565Z,30.00
2019-01-06T07:43:01.655Z,30.00
2019-01-06T07:45:28.734Z,30.00
2019-01-06T07:47:55.845Z,30.70
2019-01-06T07:50:22.953Z,30.00
2019-01-06T07:52:50.052Z,30.00
2019-01-06T07:55:17.197Z,30.00
2019-01-06T07:57:44.257Z,30.00
2019-01-06T08:00:15.455Z,30.00
2019-01-06T08:02:41.473Z,30.00
2019-01-06T08:05:08.603Z,30.00
2019-01-06T08:07:35.783Z,30.70
2019-01-06T08:10:02.841Z,30.00
2019-01-06T08:12:29.937Z,30.00
2019-01-06T08:14:56.995Z,30.00
2019-01-06T08:17:24.060Z,30.10
2019-01-06T08:19:51.224Z,30.20
2019-01-06T08:22:18.277Z,30.10
2019-01-06T08:24:45.367Z,30.20
2019-01-06T08:27:12.550Z,30.30
2019-01-06T08:29:39.605Z,30.40
2019-01-06T08:32:06.666Z,30.40
2019-01-06T08:34:33.898Z,30.40
2019-01-06T08:37:00.959Z,30.50
2019-01-06T08:39:28.237Z,30.40
2019-01-06T08:41:55.302Z,30.40
2019-01-06T08:44:22.392Z,30.40
2019-01-06T08:46:49.451Z,30.40
2019-01-06T08:49:16.604Z,30.40
2019-01-06T08:51:43.658Z,30.50
2019-01-06T08:54:10.712Z,30.50
2019-01-06T08:56:37.962Z,30.50
2019-01-06T08:59:05.039Z,30.50
2019-01-06T09:01:32.136Z,30.50
2019-01-06T09:03:59.269Z,30.50
2019-01-06T09:06:26.566Z,30.60
2019-01-06T09:08:53.663Z,30.50
2019-01-06T09:11:20.709Z,30.60
2019-01-06T09:13:47.791Z,30.70
2019-01-06T09:16:14.940Z,30.70
2019-01-06T09:18:41.999Z,30.80
2019-01-06T09:21:09.053Z,30.80
2019-01-06T09:23:36.140Z,30.80
2019-01-06T09:26:03.203Z,30.80
2019-01-06T09:28:30.391Z,30.90
2019-01-06T09:30:57.441Z,30.80
2019-01-06T09:33:24.550Z,30.80
2019-01-06T09:35:51.724Z,30.80
2019-01-06T09:38:18.827Z,30.80
2019-01-06T09:40:47.554Z,30.80
2019-01-06T09:43:14.854Z,31.00
2019-01-06T09:45:41.930Z,30.90
2019-01-06T09:48:08.983Z,30.90
2019-01-06T09:50:36.276Z,30.80
2019-01-06T09:53:03.403Z,30.80
2019-01-06T09:55:30.497Z,30.80
2019-01-06T09:57:57.544Z,30.80
2019-01-06T10:00:24.630Z,30.90
2019-01-06T10:02:51.695Z,30.70
2019-01-06T10:05:18.798Z,30.70
2019-01-06T10:07:45.853Z,30.70
2019-01-06T10:10:13.060Z,30.70
2019-01-06T10:12:40.117Z,30.70
2019-01-06T10:15:07.225Z,30.70
2019-01-06T10:17:34.312Z,30.80
2019-01-06T10:20:01.413Z,30.80
2019-01-06T10:22:28.515Z,30.70
2019-01-06T10:24:55.623Z,30.70
2019-01-06T10:27:22.822Z,30.80
2019-01-06T10:29:49.915Z,30.80
2019-01-06T10:32:18.027Z,30.70
2019-01-06T10:34:45.084Z,30.80
2019-01-06T10:37:12.221Z,30.70
2019-01-06T10:39:39.329Z,30.80
2019-01-06T10:42:06.397Z,31.40
2019-01-06T10:44:33.484Z,30.70
2019-01-06T10:47:00.625Z,30.70
2019-01-06T10:49:27.721Z,30.60
2019-01-06T10:51:54.816Z,30.70
2019-01-06T10:54:21.910Z,30.80
2019-01-06T10:56:49.006Z,30.70
2019-01-06T10:59:16.173Z,30.80
2019-01-06T11:01:43.288Z,30.80
2019-01-06T11:04:10.331Z,30.80
2019-01-06T11:06:37.678Z,30.80
2019-01-06T11:09:04.735Z,30.90
2019-01-06T11:11:31.830Z,30.90
2019-01-06T11:13:58.923Z,30.90
2019-01-06T11:16:25.982Z,30.90
2019-01-06T11:18:53.163Z,30.80
2019-01-06T11:21:20.209Z,30.90
2019-01-06T11:23:47.265Z,30.90
2019-01-06T11:26:14.534Z,30.90
2019-01-06T11:28:42.047Z,30.90
2019-01-06T11:31:09.332Z,30.80
2019-01-06T11:33:36.479Z,30.80
2019-01-06T11:36:03.679Z,30.80
2019-01-06T11:38:30.759Z,30.90
2019-01-06T11:40:57.942Z,31.40
2019-01-06T11:43:28.626Z,30.80
2019-01-06T11:45:56.000Z,30.70
2019-01-06T11:48:23.099Z,30.70
2019-01-06T11:50:50.191Z,30.60
2019-01-06T11:53:17.331Z,30.70
2019-01-06T11:55:44.537Z,30.80
2019-01-06T11:58:11.730Z,30.70
2019-01-06T12:00:38.819Z,30.80
2019-01-06T12:03:05.886Z,30.80
2019-01-06T12:05:33.057Z,30.70
2019-01-06T12:08:00.234Z,30.70
2019-01-06T12:10:27.305Z,30.60
2019-01-06T12:12:54.465Z,30.60
2019-01-06T12:15:21.606Z,30.50
2019-01-06T12:17:48.738Z,30.50
2019-01-06T12:20:16.191Z,30.50
2019-01-06T12:22:43.337Z,30.50
2019-01-06T12:25:10.583Z,30.50
2019-01-06T12:27:37.659Z,30.50
2019-01-06T12:30:04.803Z,30.60
2019-01-06T12:32:32.034Z,30.50
2019-01-06T12:34:59.118Z,30.60
2019-01-06T12:37:26.226Z,30.80
2019-01-06T12:39:53.431Z,31.10
2019-01-06T12:42:20.490Z,30.80
2019-01-06T12:44:47.592Z,30.90
2019-01-06T12:47:15.235Z,31.00
2019-01-06T12:49:42.481Z,31.10
2019-01-06T12:52:09.641Z,31.20
2019-01-06T12:54:36.699Z,31.20
2019-01-06T12:57:03.796Z,31.30
2019-01-06T12:59:30.859Z,31.40
2019-01-06T13:01:57.939Z,31.70
2019-01-06T13:04:24.993Z,31.60
2019-01-06T13:06:52.209Z,32.20
2019-01-06T13:09:19.306Z,32.20
2019-01-06T13:11:46.392Z,32.50
2019-01-06T13:14:13.482Z,32.50
2019-01-06T13:16:40.539Z,32.80
2019-01-06T13:19:07.830Z,33.10
2019-01-06T13:21:34.883Z,33.20
2019-01-06T13:24:01.946Z,33.20
2019-01-06T13:26:29.181Z,33.30
2019-01-06T13:28:56.282Z,34.00
2019-01-06T13:31:23.343Z,33.70
2019-01-06T13:33:50.464Z,33.70
2019-01-06T13:36:17.518Z,33.60
2019-01-06T13:38:44.827Z,33.70
2019-01-06T13:41:11.987Z,33.50
2019-01-06T13:43:39.051Z,33.50
2019-01-06T13:46:06.154Z,33.60
2019-01-06T13:48:33.211Z,33.50
2019-01-06T13:51:00.265Z,33.40
2019-01-06T13:53:27.509Z,33.30
2019-01-06T13:55:54.797Z,33.40
2019-01-06T13:58:21.859Z,33.70
2019-01-06T14:00:49.070Z,33.90
2019-01-06T14:03:16.161Z,33.80
2019-01-06T14:05:43.369Z,33.70
2019-01-06T14:08:10.438Z,33.70
2019-01-06T14:10:37.499Z,33.50
2019-01-06T14:13:04.610Z,33.40
2019-01-06T14:15:31.748Z,33.30
2019-01-06T14:17:58.809Z,33.30
2019-01-06T14:20:26.055Z,33.40
2019-01-06T14:22:53.189Z,33.20
2019-01-06T14:25:20.350Z,33.20
2019-01-06T14:27:47.447Z,33.10
2019-01-06T14:30:14.514Z,33.00
2019-01-06T14:32:41.599Z,32.90
2019-01-06T14:35:08.686Z,33.00
2019-01-06T14:37:47.486Z,32.90
2019-01-06T14:40:14.753Z,32.90
2019-01-06T14:42:41.857Z,32.80
2019-01-06T14:45:08.933Z,32.70
2019-01-06T14:47:36.063Z,32.70
2019-01-06T14:50:03.193Z,32.70
2019-01-06T14:52:30.303Z,32.60
2019-01-06T14:54:57.400Z,32.60
2019-01-06T14:57:24.721Z,32.60
2019-01-06T14:59:51.829Z,32.50
2019-01-06T15:02:19.404Z,32.40
2019-01-06T15:04:46.495Z,32.60
2019-01-06T15:07:13.554Z,32.60
2019-01-06T15:09:40.735Z,32.40
2019-01-06T15:12:07.867Z,32.40
2019-01-06T15:14:34.986Z,32.40
2019-01-06T15:17:02.100Z,32.50
2019-01-06T15:19:29.158Z,32.60
2019-01-06T15:21:56.293Z,32.60
2019-01-06T15:24:23.419Z,32.70
2019-01-06T15:26:50.696Z,32.90
2019-01-06T15:29:17.921Z,32.90
2019-01-06T15:31:45.005Z,32.90
2019-01-06T15:34:12.083Z,33.00
2019-01-06T15:36:39.155Z,33.00
2019-01-06T15:39:06.335Z,33.10
2019-01-06T15:41:33.419Z,33.00
2019-01-06T15:44:00.534Z,33.10
2019-01-06T15:46:27.679Z,33.10
2019-01-06T15:48:56.333Z,33.20
2019-01-06T15:51:23.415Z,33.10
2019-01-06T15:53:50.515Z,33.20
2019-01-06T15:56:17.576Z,33.40
2019-01-06T15:58:44.782Z,33.50
2019-01-06T16:01:11.874Z,33.40
2019-01-06T16:03:39.007Z,33.50
2019-01-06T16:06:06.093Z,33.40
2019-01-06T16:08:45.619Z,33.40
2019-01-06T16:11:11.098Z,33.30
2019-01-06T16:13:38.200Z,33.30
2019-01-06T16:16:05.324Z,33.40
2019-01-06T16:18:32.614Z,33.40
2019-01-06T16:20:59.743Z,33.40
2019-01-06T16:23:26.912Z,33.40
2019-01-06T16:25:54.176Z,33.40
2019-01-06T16:28:21.275Z,33.50
2019-01-06T16:30:48.343Z,33.40
2019-01-06T16:33:15.547Z,33.30
2019-01-06T16:35:42.612Z,33.20
2019-01-06T16:38:09.668Z,33.20
2019-01-06T16:40:36.898Z,33.50
2019-01-06T16:43:03.957Z,33.10
2019-01-06T16:45:31.055Z,33.20
2019-01-06T16:47:58.220Z,33.20
2019-01-06T16:50:25.283Z,33.20
2019-01-06T16:52:52.379Z,33.20
2019-01-06T16:55:19.460Z,33.20
2019-01-06T16:57:46.575Z,33.10
2019-01-06T17:00:13.742Z,33.20
2019-01-06T17:02:40.799Z,33.10
2019-01-06T17:05:07.901Z,33.10
2019-01-06T17:07:34.990Z,33.10
2019-01-06T17:10:02.274Z,33.00
2019-01-06T17:12:29.412Z,33.00
2019-01-06T17:14:56.486Z,32.90
2019-01-06T17:17:24.435Z,32.90
2019-01-06T17:19:51.608Z,32.80
2019-01-06T17:22:18.699Z,32.80
2019-01-06T17:24:45.974Z,32.90
2019-01-06T17:27:13.038Z,32.90
2019-01-06T17:29:40.266Z,32.90
2019-01-06T17:32:07.348Z,32.90
2019-01-06T17:34:34.450Z,32.90
2019-01-06T17:37:01.670Z,32.80
2019-01-06T17:39:28.766Z,32.70
2019-01-06T17:41:55.838Z,32.70
2019-01-06T17:44:22.934Z,32.70
2019-01-06T17:46:50.012Z,32.70
2019-01-06T17:49:17.073Z,32.60
2019-01-06T17:51:44.185Z,32.60
2019-01-06T17:54:11.268Z,32.70
2019-01-06T17:56:38.419Z,32.70
2019-01-06T17:59:05.490Z,32.70
2019-01-06T18:01:32.590Z,32.80
2019-01-06T18:03:59.661Z,32.80
2019-01-06T18:06:27.016Z,32.70
2019-01-06T18:08:54.121Z,32.70
2019-01-06T18:11:21.302Z,32.70
2019-01-06T18:13:48.412Z,32.80
2019-01-06T18:16:15.561Z,32.70
2019-01-06T18:18:42.685Z,32.70
2019-01-06T18:21:09.753Z,32.80
2019-01-06T18:23:36.812Z,32.70
2019-01-06T18:26:04.036Z,32.40
2019-01-06T18:28:31.128Z,32.80
2019-01-06T18:30:58.222Z,32.70
2019-01-06T18:33:25.280Z,32.80
2019-01-06T18:35:52.424Z,32.90
2019-01-06T18:38:19.549Z,32.90
2019-01-06T18:40:46.612Z,32.90
2019-01-06T18:43:13.727Z,32.90
2019-01-06T18:45:40.867Z,32.80
2019-01-06T18:48:08.460Z,32.70
2019-01-06T18:50:35.519Z,32.60
2019-01-06T18:53:03.410Z,32.50
2019-01-06T18:55:30.543Z,32.50
2019-01-06T18:57:57.709Z,32.40
2019-01-06T19:00:25.148Z,32.40
2019-01-06T19:02:52.416Z,32.30
2019-01-06T19:05:20.393Z,32.30
2019-01-06T19:07:47.709Z,32.30
2019-01-06T19:10:15.376Z,32.30
2019-01-06T19:12:42.592Z,32.20
2019-01-06T19:15:09.824Z,32.20
2019-01-06T19:17:40.805Z,32.10
2019-01-06T19:20:06.727Z,32.10
2019-01-06T19:22:34.003Z,32.00
2019-01-06T19:25:01.076Z,32.00
2019-01-06T19:27:30.437Z,31.90
2019-01-06T19:29:58.351Z,32.10
2019-01-06T19:32:25.721Z,32.00
2019-01-06T19:34:53.351Z,32.00
2019-01-06T19:37:21.076Z,32.00
2019-01-06T19:39:48.597Z,31.90
2019-01-06T19:42:15.689Z,31.90
2019-01-06T19:44:43.219Z,31.90
2019-01-06T19:47:12.304Z,31.90
2019-01-06T19:49:40.234Z,31.90
2019-01-06T19:52:12.856Z,31.80
2019-01-06T19:54:36.153Z,31.90
2019-01-06T19:57:03.425Z,31.80
2019-01-06T19:59:31.206Z,32.00
2019-01-06T20:01:58.457Z,32.10
2019-01-06T20:04:25.678Z,32.10
2019-01-06T20:06:53.358Z,32.00
2019-01-06T20:09:20.719Z,32.00
2019-01-06T20:11:48.051Z,32.00
2019-01-06T20:14:15.531Z,32.20
2019-01-06T20:16:42.676Z,32.20
2019-01-06T20:19:10.527Z,32.10
2019-01-06T20:21:37.691Z,32.10
2019-01-06T20:24:04.815Z,32.10
2019-01-06T20:26:31.890Z,32.20
2019-01-06T20:28:59.288Z,32.30
2019-01-06T20:31:26.354Z,32.40
2019-01-06T20:33:53.480Z,32.30
2019-01-06T20:36:20.525Z,32.40
2019-01-06T20:38:47.746Z,32.90
2019-01-06T20:41:14.874Z,32.50
2019-01-06T20:43:42.067Z,32.50
2019-01-06T20:46:09.620Z,32.40
2019-01-06T20:48:36.972Z,32.40
2019-01-06T20:51:05.233Z,32.30
2019-01-06T20:53:33.361Z,32.20
2019-01-06T20:56:00.722Z,32.20
2019-01-06T20:58:28.059Z,32.10
2019-01-06T21:00:55.948Z,32.00
2019-01-06T21:03:23.348Z,32.20
2019-01-06T21:05:50.617Z,32.20
2019-01-06T21:08:18.071Z,32.20
2019-01-06T21:10:45.424Z,32.20
2019-01-06T21:13:12.995Z,32.20
2019-01-06T21:15:40.548Z,32.10
2019-01-06T21:18:07.996Z,32.40
2019-01-06T21:20:35.591Z,32.00
2019-01-06T21:23:04.114Z,32.00
2019-01-06T21:25:31.213Z,32.00
2019-01-06T21:27:58.271Z,31.90
2019-01-06T21:30:25.400Z,31.80
2019-01-06T21:32:52.520Z,31.80
2019-01-06T21:35:19.648Z,31.80
2019-01-06T21:37:46.769Z,31.70
2019-01-06T21:40:14.117Z,31.80
2019-01-06T21:42:41.194Z,31.90
2019-01-06T21:45:08.330Z,31.90
2019-01-06T21:47:36.369Z,31.90
2019-01-06T21:50:04.690Z,31.80
2019-01-06T21:52:32.456Z,31.90
2019-01-06T21:57:45.827Z,31.90
2019-01-06T22:00:12.934Z,32.00
2019-01-06T22:02:40.155Z,31.90
2019-01-06T22:05:07.735Z,31.90
2019-01-06T22:07:35.611Z,31.80
2019-01-06T22:10:02.668Z,31.90
2019-01-06T22:12:30.121Z,31.90
2019-01-06T22:14:58.087Z,31.90
2019-01-06T22:17:25.710Z,31.90
2019-01-06T22:19:54.190Z,32.00
2019-01-06T22:22:21.971Z,31.90
2019-01-06T22:24:49.972Z,31.90
2019-01-06T22:27:17.146Z,31.90
2019-01-06T22:29:44.232Z,31.90
2019-01-06T22:32:11.343Z,31.90
2019-01-06T22:34:38.435Z,31.90
2019-01-06T22:37:05.541Z,31.80
2019-01-06T22:39:32.610Z,31.80
2019-01-06T22:41:59.713Z,31.80
2019-01-06T22:44:26.903Z,31.90
2019-01-06T22:46:54.223Z,31.90
2019-01-06T22:49:21.347Z,31.90
2019-01-06T22:51:48.436Z,31.80
2019-01-06T22:54:15.496Z,31.90
2019-01-06T22:56:42.602Z,31.80
2019-01-06T22:59:09.655Z,31.70
2019-01-06T23:01:36.738Z,31.70
2019-01-06T23:04:03.829Z,31.70
2019-01-06T23:06:30.884Z,31.60
2019-01-06T23:08:58.000Z,31.50
2019-01-06T23:11:25.083Z,31.60
2019-01-06T23:13:52.155Z,31.50
2019-01-06T23:16:19.328Z,31.50
2019-01-06T23:18:46.393Z,31.50
2019-01-06T23:21:13.538Z,31.50
2019-01-06T23:23:40.591Z,31.40
2019-01-06T23:26:07.697Z,31.50
2019-01-06T23:28:34.769Z,31.40
2019-01-06T23:31:01.834Z,31.50
2019-01-06T23:33:28.917Z,31.50
2019-01-06T23:35:56.120Z,31.50
2019-01-06T23:38:23.211Z,31.70
2019-01-06T23:40:50.306Z,31.40
2019-01-06T23:43:17.373Z,31.40
2019-01-06T23:45:44.479Z,31.40
2019-01-06T23:48:11.562Z,31.40
2019-01-06T23:50:38.653Z,31.40
2019-01-06T23:53:05.755Z,31.40
2019-01-06T23:55:32.840Z,31.40
2019-01-06T23:57:59.903Z,31.50
